WetterOnline ( https://www.wetteronline.de )

Wetter aktuell Gießen

Aktuelles Wetter: Gießen (195m)

6-stündlich | Neueste Meldungen
Ortszeit Temperatur Wetter
Di, 28.09. 14:00 15.9° C fast wolkenlos
Di, 28.09. 8:00 8.7° C wolkenlos
Di, 28.09. 2:00 11.9° C bewölkt
Mo, 27.09. 20:00 18.2° C bedeckt
Mo, 27.09. 14:00 19.0° C bewölkt
Mo, 27.09. 8:00 14.3° C Nebel
Mo, 27.09. 2:00 15.7° C bedeckt
So, 26.09. 20:00 17.9° C bewölkt
Ortszeit Temperatur Wetter
Di, 28.09. 16:30 17.4° C wolkenlos
Di, 28.09. 16:20 17.4° C wolkenlos
Di, 28.09. 16:10 17.1° C leicht bewölkt
Di, 28.09. 16:00 17.5° C leicht bewölkt
Di, 28.09. 15:50 17.5° C leicht bewölkt
Di, 28.09. 15:40 17.7° C fast wolkenlos
Di, 28.09. 15:30 16.6° C wolkenlos
Di, 28.09. 15:00 16.8° C fast wolkenlos
Di, 28.09. 14:30 16.5° C leicht bewölkt
Di, 28.09. 14:00 15.9° C fast wolkenlos
Di, 28.09. 13:30 15.4° C fast wolkenlos
Ortszeit Relative Feuchte Sichtweite
Di, 28.09. 14:00 64% -
Di, 28.09. 8:00 99% 4.4 km
Di, 28.09. 2:00 98% 13 km
Mo, 27.09. 20:00 83% 35 km
Mo, 27.09. 14:00 79% 26 km
Mo, 27.09. 8:00 100% 0.3 km
Mo, 27.09. 2:00 100% 1.3 km
So, 26.09. 20:00 92% 20 km
Ortszeit Relative Feuchte Sichtweite
Di, 28.09. 16:30 53% 35 km
Di, 28.09. 16:20 53% -
Di, 28.09. 16:10 51% -
Di, 28.09. 16:00 49% 15 km
Di, 28.09. 15:50 49% -
Di, 28.09. 15:40 48% -
Di, 28.09. 15:30 51% 50 km
Di, 28.09. 15:00 55% 40 km
Di, 28.09. 14:30 60% 35 km
Di, 28.09. 14:00 64% 35 km
Di, 28.09. 13:30 67% 45 km
Ortszeit Niederschlagsmenge Niederschlagsart
Di, 28.09. 14:00 0.0 l/m2 in 6 Std. -
Di, 28.09. 8:00 2 l/m2 in 12 Std. -
Di, 28.09. 2:00 2 l/m2 in 6 Std. Regen
Mo, 27.09. 20:00 0.1 l/m2 in 12 Std. Regen
Mo, 27.09. 14:00 0.0 l/m2 in 6 Std. -
Mo, 27.09. 8:00 0.0 l/m2 in 12 Std. -
Mo, 27.09. 2:00 0.0 l/m2 in 6 Std. -
So, 26.09. 20:00 0.2 l/m2 in 12 Std. Regen
Ortszeit Niederschlagsmenge Niederschlagsart
Di, 28.09. 16:30 0.0 l/m2 in 1 Std. -
Di, 28.09. 16:20 keine Meldung -
Di, 28.09. 16:10 keine Meldung -
Di, 28.09. 16:00 0.0 l/m2 in 1 Std. -
Di, 28.09. 15:50 keine Meldung -
Di, 28.09. 15:40 keine Meldung -
Di, 28.09. 15:30 0.0 l/m2 in 1 Std. -
Di, 28.09. 15:00 0.0 l/m2 in 1 Std. -
Di, 28.09. 14:30 0.0 l/m2 in 1 Std. -
Di, 28.09. 14:00 0.0 l/m2 in 1 Std. -
Di, 28.09. 13:30 0.0 l/m2 in 1 Std. -
Ortszeit Stärke Spitze Richtung
km/h Bft. km/h Grad Sektor
Di, 28.09. 14:00 7 2 18 220° SW
Di, 28.09. 8:00 7 2 14 230° SW
Di, 28.09. 2:00 6 1 43 240° SW
Mo, 27.09. 20:00 11 2 40 170° S
Mo, 27.09. 14:00 17 3 24 130° SO
Mo, 27.09. 8:00 4 1 11 180° S
Mo, 27.09. 2:00 4 1 11 280° W
So, 26.09. 20:00 7 2 25 190° S
Ortszeit Stärke Spitze Richtung
km/h Bft. km/h Grad Sektor
Di, 28.09. 16:30 4 1 11 70° O
Di, 28.09. 16:20 4 1 - 70° O
Di, 28.09. 16:10 4 1 - 10° N
Di, 28.09. 16:00 4 1 11 180° S
Di, 28.09. 15:50 4 1 - 180° S
Di, 28.09. 15:40 4 1 - 170° S
Di, 28.09. 15:30 7 2 11 110° O
Di, 28.09. 15:00 2 1 17 240° SW
Di, 28.09. 14:30 6 1 17 200° S
Di, 28.09. 14:00 7 2 18 220° SW
Di, 28.09. 13:30 7 2 11 190° S
Ortszeit Untergrenze Bedeckung Gattung
total tief tief mittel hoch
Di, 28.09. 14:00 750 m 1/8 1/8 - - -
Di, 28.09. 8:00 - 0/8 0/8 - - -
Di, 28.09. 2:00 420 m 7/8 7/8 - - -
Mo, 27.09. 20:00 1230 m 8/8 8/8 - - -
Mo, 27.09. 14:00 720 m 7/8 7/8 - - -
Mo, 27.09. 8:00 <30 m 8/8 0/8 - - -
Mo, 27.09. 2:00 6900 m 8/8 8/8 - - -
So, 26.09. 20:00 1500 m 7/8 7/8 - - -
Ortszeit Bedeckungsgrad in Achtel und Wolkenuntergrenze
Di, 28.09. 16:30 keine Wolken
Di, 28.09. 16:20 keine Wolken
Di, 28.09. 16:10 1(1260m) 2(10500m)
Di, 28.09. 16:00 1(1260m) 3(10500m)
Di, 28.09. 15:50 1(1260m) 3(10500m)
Di, 28.09. 15:40 1(10500m)
Di, 28.09. 15:30 keine Wolken
Di, 28.09. 15:00 1(870m)
Di, 28.09. 14:30 3(870m)
Di, 28.09. 14:00 1(750m)
Di, 28.09. 13:30 2(750m)
Ortszeit Luftdruck NN (hPa) Tendenz (hPa in 3 Std.)
Di, 28.09. 14:00 1024 - 1,3
Di, 28.09. 8:00 1025 + 1,2
Di, 28.09. 2:00 1023 + 2,0
Mo, 27.09. 20:00 1017 + 0,9
Mo, 27.09. 14:00 1016 - 0,8
Mo, 27.09. 8:00 1017 - 0,4
Mo, 27.09. 2:00 1018 + 0,3
So, 26.09. 20:00 1017 + 0,2
Ortszeit Luftdruck NN (hPa) Tendenz (hPa in 3 Std.)
Di, 28.09. 16:30 1022 - 1,7
Di, 28.09. 16:20 1022 keine Meldung
Di, 28.09. 16:10 1022 keine Meldung
Di, 28.09. 16:00 1022 - 1,7
Di, 28.09. 15:50 1022 keine Meldung
Di, 28.09. 15:40 1022 keine Meldung
Di, 28.09. 15:30 1023 - 1,6
Di, 28.09. 15:00 1023 - 1,4
Di, 28.09. 14:30 1023 - 1,2
Di, 28.09. 14:00 1024 - 1,3
Di, 28.09. 13:30 1024 - 1,1
Ortszeit Schneehöhe (cm)
Di, 28.09. 14:00 -
Di, 28.09. 8:00 -
Di, 28.09. 2:00 -
Mo, 27.09. 20:00 -
Mo, 27.09. 14:00 -
Mo, 27.09. 8:00 -
Mo, 27.09. 2:00 -
So, 26.09. 20:00 -
Ortszeit Schneehöhe (cm)
Di, 28.09. 16:30 -
Di, 28.09. 16:20 -
Di, 28.09. 16:10 -
Di, 28.09. 16:00 -
Di, 28.09. 15:50 -
Di, 28.09. 15:40 -
Di, 28.09. 15:30 -
Di, 28.09. 15:00 -
Di, 28.09. 14:30 -
Di, 28.09. 14:00 -
Di, 28.09. 13:30 -
Link zu dieser Seite / Seite empfehlen

Das Wetter in ...